Skagway, AK (99840)

6:52 PM AKDT on August 24, 2016 (GMT -0800)
RAWS | | Change Station
Active Advisory: Special Statement

Elev 919 ft 59.66 °N, 135.27 °W | Updated 1 day ago

Cloudy
Cloudy
61 °F
Feels Like 61 °F
N
5
Wind Variable Wind from SSW
Gusts mph

Today
High -- | Low -- °F
--% Chance of Precip.
Yesterday
High -- | Low -- °F
Precip. -- in
Pressure 30.51 in
Visibility 10.0 miles
Clouds Mostly Cloudy 2600 ft
Mostly Cloudy 6000 ft
Dew Point 56 °F
Humidity 83%
Rainfall in
Snow Depth Not available.
5:40 AM 8:24 PM
Waning Gibbous, 50% visible
SPECI PAGY 250238Z AUTO VRB03KT 10SM BKN026 BKN060 16/13 A3051 RMK AO2 T01610128 TSNO
Pressure 30.51 in
Visibility 10.0 miles
Clouds Mostly Cloudy 2600 ft
Mostly Cloudy 6000 ft
Dew Point 56 °F
Humidity 83%
Rainfall in
Snow Depth Not available.
5:40 AM 8:24 PM
Waning Gibbous, 50% visible
SPECI PAGY 250238Z AUTO VRB03KT 10SM BKN026 BKN060 16/13 A3051 RMK AO2 T01610128 TSNO

10-Day Weather Forecast

Almanac

Astronomy

Aug. 24, 2016 Rise Set
Actual Time
Civil Twilight
Nautical Twilight
Astronomical Twilight
Moon
Length of Visible Light
Length of Day
Tomorrow will be .
, % of the Moon is Illuminated

Today's Extremes

State Highs State Lows

Community

WunderPhotos

Upload Photos

1,934,779 photos uploaded!

WunderBlog® & News

Nearby

Air Quality

  Air Quality AQ Index Pollutant
Not available.

Snow Depth

Station Depth Elevation

Earthquake Activity

City Distance Mag. Time & Date
Minimum magnitude displayed is 2.5.

Coastal Water Temperatures

Place Temperature

Stations

Nearby Weather Stations

Station Location Temp. Windchill Dew Point Humidity Wind Precip. Elev Updated Type
                   

Watches & Warnings

Special Statement
Issued: 3:08 PM AKDT Aug. 24, 2016 – National Weather Service

... Taiya river levels expected to rise Friday...

Rainfall around 1 inch across the northern Panhandle Thursday
evening into Friday. Higher rainfall amounts for the higher
elevations such as the taiya river basin. Forecast for the taiya
river to rise above bankfull of 16.0 feet but remain below minor
flood stage of 16.5 Friday evening near a stage of 16.3 feet. At
16.1 feet portions of the chilkoot trail begin to inundate with
water. This situation will be closely monitored and additional
information will be provided as it becomes available.


308 PM akdt Wed Aug 24 2016

... Taiya river levels expected to rise Friday...

Rainfall around 1 inch across the northern Panhandle Thursday
evening into Friday. Higher rainfall amounts for the higher
elevations such as the taiya river basin. Forecast for the taiya
river to rise above bankfull of 16.0 feet but remain below minor
flood stage of 16.5 Friday evening near a stage of 16.3 feet. At
16.1 feet portions of the chilkoot trail begin to inundate with
water. This situation will be closely monitored and additional
information will be provided as it becomes available.